createdAt,value
2023-04-11T00:01:49.934Z,35.52
2023-04-11T00:04:20.614Z,38.85
2023-04-11T00:06:48.452Z,38.59
2023-04-11T00:09:16.836Z,38.09
2023-04-11T00:11:44.115Z,38.64
2023-04-11T00:14:12.597Z,38.15
2023-04-11T00:16:39.863Z,37.18
2023-04-11T00:19:07.464Z,39.26
2023-04-11T00:21:35.716Z,38.64
2023-04-11T00:24:03.159Z,39.23
2023-04-11T00:26:29.932Z,39.73
2023-04-11T00:28:56.903Z,38.86
2023-04-11T00:31:23.895Z,35.19
2023-04-11T00:33:50.668Z,35.35
2023-04-11T00:36:17.857Z,39.21
2023-04-11T00:38:46.720Z,37.87
2023-04-11T00:41:13.592Z,37.79
2023-04-11T00:43:40.789Z,35.60
2023-04-11T00:46:09.835Z,38.39
2023-04-11T00:48:36.927Z,36.64
2023-04-11T00:51:04.285Z,37.10
2023-04-11T00:53:33.143Z,37.67
2023-04-11T00:56:00.679Z,39.23
2023-04-11T00:58:28.733Z,41.37
2023-04-11T01:00:55.739Z,42.11
2023-04-11T01:03:22.929Z,41.09
2023-04-11T01:05:54.310Z,40.30
2023-04-11T01:08:22.585Z,40.23
2023-04-11T01:10:50.331Z,39.32
2023-04-11T01:13:19.894Z,40.74
2023-04-11T01:15:47.075Z,40.45
2023-04-11T01:18:15.524Z,39.45
2023-04-11T01:20:42.591Z,38.33
2023-04-11T01:23:10.900Z,39.07
2023-04-11T01:25:37.775Z,38.04
2023-04-11T01:28:04.985Z,36.86
2023-04-11T01:30:32.494Z,38.35
2023-04-11T01:32:59.449Z,37.95
2023-04-11T01:35:26.282Z,37.27
2023-04-11T01:37:53.528Z,37.62
2023-04-11T01:40:21.498Z,37.82
2023-04-11T01:42:49.253Z,37.71
2023-04-11T01:45:16.585Z,38.18
2023-04-11T01:47:45.422Z,36.91
2023-04-11T01:50:12.331Z,36.45
2023-04-11T01:52:39.184Z,38.38
2023-04-11T01:55:06.282Z,37.84
2023-04-11T01:57:33.980Z,36.78
2023-04-11T02:00:01.409Z,39.67
2023-04-11T02:02:30.079Z,41.23
2023-04-11T02:04:57.032Z,42.98
2023-04-11T02:07:24.584Z,40.95
2023-04-11T02:09:51.320Z,41.04
2023-04-11T02:12:19.334Z,41.91
2023-04-11T02:14:46.695Z,35.60
2023-04-11T02:17:14.570Z,37.61
2023-04-11T02:19:41.478Z,34.06
2023-04-11T02:22:11.302Z,34.63
2023-04-11T02:24:39.811Z,36.45
2023-04-11T02:27:06.850Z,38.11
2023-04-11T02:29:34.454Z,37.76
2023-04-11T02:32:01.704Z,36.43
2023-04-11T02:34:29.827Z,38.21
2023-04-11T02:36:56.683Z,36.61
2023-04-11T02:39:26.489Z,38.73
2023-04-11T02:41:55.669Z,36.48
2023-04-11T02:44:22.709Z,35.03
2023-04-11T02:46:50.025Z,35.75
2023-04-11T02:49:16.867Z,36.58
2023-04-11T02:51:47.873Z,37.51
2023-04-11T02:54:14.901Z,37.73
2023-04-11T02:56:43.448Z,37.90
2023-04-11T02:59:10.284Z,34.43
2023-04-11T03:01:38.322Z,38.23
2023-04-11T03:04:07.319Z,38.98
2023-04-11T03:06:54.496Z,37.84
2023-04-11T03:09:21.519Z,34.68
2023-04-11T03:11:48.785Z,37.69
2023-04-11T03:14:16.349Z,38.40
2023-04-11T03:16:43.240Z,38.65
2023-04-11T03:19:10.052Z,38.61
2023-04-11T03:21:36.906Z,37.69
2023-04-11T03:24:05.032Z,40.28
2023-04-11T03:26:32.416Z,38.64
2023-04-11T03:29:07.776Z,38.60
2023-04-11T03:31:44.205Z,37.87
2023-04-11T03:34:12.071Z,37.86
2023-04-11T03:36:40.751Z,36.97
2023-04-11T03:39:07.562Z,40.10
2023-04-11T03:41:35.079Z,36.82
2023-04-11T03:44:02.387Z,37.23
2023-04-11T03:46:30.250Z,36.78
2023-04-11T03:48:57.428Z,40.32
2023-04-11T03:51:24.412Z,40.79
2023-04-11T03:54:00.370Z,39.44
2023-04-11T03:56:31.670Z,38.41
2023-04-11T03:58:58.625Z,38.08
2023-04-11T04:01:30.305Z,38.88
2023-04-11T04:04:02.128Z,41.13
2023-04-11T04:06:31.876Z,41.23
2023-04-11T04:08:59.808Z,37.02
2023-04-11T04:11:31.524Z,35.91
2023-04-11T04:13:59.086Z,38.06
2023-04-11T04:16:25.997Z,36.37
2023-04-11T04:18:57.384Z,37.09
2023-04-11T04:21:26.773Z,38.14
2023-04-11T04:23:57.329Z,36.28
2023-04-11T04:26:32.233Z,37.88
2023-04-11T04:29:10.309Z,40.62
2023-04-11T04:31:52.960Z,40.02
2023-04-11T04:34:29.308Z,40.23
2023-04-11T04:36:59.668Z,38.09
2023-04-11T04:39:38.227Z,36.25
2023-04-11T04:42:07.050Z,38.02
2023-04-11T04:44:38.148Z,36.66
2023-04-11T04:47:12.972Z,38.73
2023-04-11T04:49:39.747Z,37.56
2023-04-11T04:52:06.854Z,38.59
2023-04-11T04:54:34.265Z,38.11
2023-04-11T04:57:01.512Z,37.24
2023-04-11T04:59:28.479Z,39.31
2023-04-11T05:02:02.629Z,37.21
2023-04-11T05:04:30.522Z,39.12
2023-04-11T05:06:59.286Z,41.95
2023-04-11T05:09:28.442Z,40.66
2023-04-11T05:12:07.227Z,39.43
2023-04-11T05:14:36.600Z,41.68
2023-04-11T05:17:04.366Z,41.31
2023-04-11T05:19:32.371Z,41.11
2023-04-11T05:21:59.360Z,41.87
2023-04-11T05:24:26.675Z,41.09
2023-04-11T05:26:54.564Z,41.39
2023-04-11T05:29:21.432Z,42.72
2023-04-11T05:31:49.628Z,41.05
2023-04-11T05:34:16.670Z,41.48
2023-04-11T05:36:47.501Z,39.32
2023-04-11T05:39:14.272Z,41.73
2023-04-11T05:41:41.100Z,42.56
2023-04-11T05:44:07.890Z,43.78
2023-04-11T05:46:38.581Z,39.69
2023-04-11T05:49:06.440Z,43.88
2023-04-11T05:51:33.257Z,44.68
2023-04-11T05:54:00.054Z,42.10
2023-04-11T05:56:26.872Z,44.60
2023-04-11T05:58:53.843Z,45.28
2023-04-11T06:01:22.462Z,44.53
2023-04-11T06:03:50.286Z,45.63
2023-04-11T06:06:17.410Z,45.55
2023-04-11T06:08:44.873Z,42.98
2023-04-11T06:11:11.687Z,46.16
2023-04-11T06:13:38.558Z,44.46
2023-04-11T06:16:06.913Z,44.27
2023-04-11T06:18:33.754Z,45.09
2023-04-11T06:21:00.553Z,46.75
2023-04-11T06:23:27.400Z,46.06
2023-04-11T06:25:54.201Z,46.43
2023-04-11T06:28:21.908Z,43.68
2023-04-11T06:30:48.736Z,42.88
2023-04-11T06:33:15.490Z,45.36
2023-04-11T06:35:42.467Z,45.42
2023-04-11T06:38:09.337Z,43.35
2023-04-11T06:40:37.094Z,44.23
2023-04-11T06:43:03.926Z,43.85
2023-04-11T06:45:31.468Z,42.60
2023-04-11T06:47:58.388Z,44.48
2023-04-11T06:50:25.314Z,42.73
2023-04-11T06:52:52.259Z,43.74
2023-04-11T06:55:19.176Z,44.88
2023-04-11T06:57:45.993Z,43.85
2023-04-11T07:00:13.738Z,43.94
2023-04-11T07:02:41.125Z,46.86
2023-04-11T07:05:12.125Z,46.11
2023-04-11T07:07:39.060Z,44.10
2023-04-11T07:10:07.387Z,45.94
2023-04-11T07:12:34.180Z,43.81
2023-04-11T07:15:02.750Z,44.00
2023-04-11T07:17:29.600Z,45.86
2023-04-11T07:19:56.522Z,44.33
2023-04-11T07:22:23.967Z,45.61
2023-04-11T07:24:55.370Z,42.15
2023-04-11T07:27:23.621Z,42.39
2023-04-11T07:29:51.269Z,45.09
2023-04-11T07:32:18.471Z,48.18
2023-04-11T07:34:45.288Z,44.37
2023-04-11T07:37:12.598Z,47.84
2023-04-11T07:39:40.534Z,45.79
2023-04-11T07:42:07.839Z,46.21
2023-04-11T07:44:36.069Z,46.37
2023-04-11T07:47:03.535Z,44.44
2023-04-11T07:49:30.343Z,45.03
2023-04-11T07:51:57.178Z,45.39
2023-04-11T07:54:25.379Z,44.41
2023-04-11T07:56:52.743Z,42.44
2023-04-11T07:59:19.581Z,45.33
2023-04-11T08:01:46.515Z,47.80
2023-04-11T08:04:13.856Z,46.41
2023-04-11T08:06:41.098Z,44.70
2023-04-11T08:09:07.942Z,45.71
2023-04-11T08:11:35.135Z,44.46
2023-04-11T08:14:02.055Z,44.78
2023-04-11T08:16:29.027Z,45.46
2023-04-11T08:18:57.309Z,42.22
2023-04-11T08:21:25.177Z,48.45
2023-04-11T08:23:52.793Z,44.80
2023-04-11T08:26:21.606Z,47.07
2023-04-11T08:28:48.551Z,46.30
2023-04-11T08:31:15.589Z,45.42
2023-04-11T08:33:42.475Z,44.56
2023-04-11T08:36:10.666Z,49.55
2023-04-11T08:38:39.447Z,48.09
2023-04-11T08:41:07.033Z,45.23
2023-04-11T08:43:35.551Z,43.34
2023-04-11T08:46:08.302Z,45.67
2023-04-11T08:48:36.626Z,44.45
2023-04-11T08:51:03.566Z,45.14
2023-04-11T08:53:31.150Z,44.50
2023-04-11T08:55:59.831Z,45.60
2023-04-11T08:58:26.873Z,45.97
2023-04-11T09:00:53.693Z,44.87
2023-04-11T09:03:20.678Z,44.46
2023-04-11T09:05:48.662Z,45.36
2023-04-11T09:08:17.105Z,43.42
2023-04-11T09:10:45.616Z,43.81
2023-04-11T09:13:26.106Z,42.83
2023-04-11T09:16:12.066Z,43.28
2023-04-11T09:18:40.023Z,43.85
2023-04-11T09:21:10.036Z,45.58
2023-04-11T09:23:38.632Z,42.67
2023-04-11T09:26:07.225Z,42.91
2023-04-11T09:28:50.733Z,44.88
2023-04-11T09:31:17.769Z,44.73
2023-04-11T09:33:55.751Z,41.83
2023-04-11T09:36:25.111Z,42.74
2023-04-11T09:38:52.429Z,42.88
2023-04-11T09:41:33.412Z,43.28
2023-04-11T09:44:01.652Z,41.26
2023-04-11T09:46:28.668Z,40.94
2023-04-11T09:48:56.606Z,41.10
2023-04-11T09:53:55.365Z,41.59
2023-04-11T09:56:24.213Z,40.74
2023-04-11T09:58:52.744Z,42.71
2023-04-11T10:01:20.396Z,41.96
2023-04-11T10:03:51.138Z,44.73
2023-04-11T10:06:50.479Z,42.90
2023-04-11T10:09:17.611Z,45.58
2023-04-11T10:11:45.511Z,44.70
2023-04-11T10:14:47.952Z,43.78
2023-04-11T10:17:22.567Z,46.18
2023-04-11T10:19:58.971Z,43.66
2023-04-11T10:22:41.121Z,45.50
2023-04-11T10:25:23.006Z,43.71
2023-04-11T10:28:01.489Z,43.12
2023-04-11T10:30:40.902Z,41.66
2023-04-11T10:33:21.050Z,44.14
2023-04-11T10:36:07.378Z,43.99
2023-04-11T10:38:43.496Z,44.38
2023-04-11T10:41:25.731Z,43.45
2023-04-11T10:44:12.071Z,43.69
2023-04-11T10:46:51.658Z,44.63
2023-04-11T10:49:39.750Z,46.76
2023-04-11T10:52:24.781Z,44.59
2023-04-11T10:54:54.789Z,44.59
2023-04-11T10:57:23.433Z,44.33
2023-04-11T10:59:50.538Z,42.34
2023-04-11T11:02:19.479Z,43.50
2023-04-11T11:04:47.599Z,40.10
2023-04-11T11:07:17.134Z,43.18
2023-04-11T11:09:51.570Z,41.84
2023-04-11T11:12:18.535Z,42.30
2023-04-11T11:14:47.129Z,42.14
2023-04-11T11:17:16.223Z,41.17
2023-04-11T11:19:47.769Z,43.07
2023-04-11T11:22:26.273Z,42.93
2023-04-11T11:24:54.971Z,42.52
2023-04-11T11:27:23.824Z,39.98
2023-04-11T11:29:51.888Z,43.32
2023-04-11T11:32:32.965Z,44.04
2023-04-11T11:35:00.372Z,41.66
2023-04-11T11:37:27.309Z,44.53
2023-04-11T11:39:55.213Z,44.68
2023-04-11T11:42:25.161Z,43.37
2023-04-11T11:44:52.104Z,46.38
2023-04-11T11:47:20.627Z,46.53
2023-04-11T11:49:48.930Z,42.75
2023-04-11T11:52:33.337Z,44.96
2023-04-11T11:55:02.277Z,41.39
2023-04-11T11:57:29.916Z,40.51
2023-04-11T11:59:57.965Z,41.47
2023-04-11T12:02:26.694Z,43.43
2023-04-11T12:05:00.819Z,43.45
2023-04-11T12:07:32.729Z,43.07
2023-04-11T12:10:14.989Z,44.16
2023-04-11T12:12:43.558Z,43.10
2023-04-11T12:15:24.118Z,45.00
2023-04-11T12:17:54.221Z,45.14
2023-04-11T12:20:27.286Z,41.95
2023-04-11T12:22:56.666Z,40.74
2023-04-11T12:25:25.668Z,39.60
2023-04-11T12:27:52.499Z,41.90
2023-04-11T12:30:19.270Z,39.75
2023-04-11T12:32:46.210Z,41.99
2023-04-11T12:35:13.571Z,39.71
2023-04-11T12:37:41.745Z,40.16
2023-04-11T12:40:12.165Z,42.42
2023-04-11T12:42:53.586Z,39.80
2023-04-11T12:45:23.547Z,42.95
2023-04-11T12:47:51.196Z,40.53
2023-04-11T12:50:18.320Z,40.36
2023-04-11T12:52:45.591Z,36.93
2023-04-11T12:55:13.428Z,38.28
2023-04-11T12:57:42.473Z,41.34
2023-04-11T13:00:13.449Z,40.87
2023-04-11T13:02:44.549Z,39.72
2023-04-11T13:05:14.464Z,41.68
2023-04-11T13:07:44.659Z,44.74
2023-04-11T13:10:14.103Z,38.72
2023-04-11T13:12:44.211Z,40.86
2023-04-11T13:15:13.292Z,37.95
2023-04-11T13:17:41.363Z,39.79
2023-04-11T13:20:11.432Z,39.29
2023-04-11T13:22:39.924Z,37.97
2023-04-11T13:25:07.730Z,38.51
2023-04-11T13:27:35.569Z,38.67
2023-04-11T13:30:04.893Z,37.28
2023-04-11T13:32:32.218Z,40.41
2023-04-11T13:34:59.516Z,38.28
2023-04-11T13:37:26.731Z,38.13
2023-04-11T13:39:53.568Z,42.18
2023-04-11T13:42:21.912Z,40.60
2023-04-11T13:44:48.771Z,41.65
2023-04-11T13:47:15.564Z,38.53
2023-04-11T13:49:42.880Z,39.92
2023-04-11T13:52:10.384Z,38.98
2023-04-11T13:54:39.069Z,40.87
2023-04-11T13:57:07.987Z,39.16
2023-04-11T13:59:35.368Z,40.28
2023-04-11T14:02:02.768Z,39.40
2023-04-11T14:04:29.954Z,39.22
2023-04-11T14:06:57.281Z,36.50
2023-04-11T14:09:24.117Z,37.65
2023-04-11T14:11:51.381Z,41.75
2023-04-11T14:14:18.553Z,38.85
2023-04-11T14:16:45.533Z,42.62
2023-04-11T14:19:12.744Z,40.85
2023-04-11T14:21:41.029Z,42.42
2023-04-11T14:24:08.419Z,37.54
2023-04-11T14:26:35.255Z,40.14
2023-04-11T14:29:02.804Z,40.11
2023-04-11T14:31:29.767Z,38.63
2023-04-11T14:33:57.671Z,37.22
2023-04-11T14:36:24.818Z,39.40
2023-04-11T14:38:53.035Z,38.95
2023-04-11T14:41:19.871Z,39.46
2023-04-11T14:43:46.653Z,40.23
2023-04-11T14:46:14.069Z,40.28
2023-04-11T14:48:42.803Z,41.03
2023-04-11T14:51:09.610Z,39.16
2023-04-11T14:53:36.990Z,38.30
2023-04-11T14:56:06.219Z,39.64
2023-04-11T14:58:33.262Z,39.41
2023-04-11T15:01:00.106Z,40.92
2023-04-11T15:03:28.729Z,39.43
2023-04-11T15:05:56.549Z,38.83
2023-04-11T15:08:23.913Z,39.59
2023-04-11T15:10:54.356Z,39.06
2023-04-11T15:13:22.830Z,39.66
2023-04-11T15:15:51.965Z,38.45
2023-04-11T15:18:30.607Z,41.26
2023-04-11T15:21:00.376Z,38.82
2023-04-11T15:23:28.677Z,39.27
2023-04-11T15:25:58.706Z,38.35
2023-04-11T15:28:27.765Z,38.57
2023-04-11T15:30:56.299Z,39.82
2023-04-11T15:33:24.285Z,38.90
2023-04-11T15:35:58.461Z,40.53
2023-04-11T15:38:27.872Z,39.58
2023-04-11T15:41:00.037Z,39.28
2023-04-11T15:43:27.938Z,39.03
2023-04-11T15:45:54.919Z,38.26
2023-04-11T15:48:21.770Z,39.43
2023-04-11T15:50:48.796Z,37.88
2023-04-11T15:53:15.708Z,36.65
2023-04-11T15:55:44.236Z,36.01
2023-04-11T15:58:12.119Z,35.20
2023-04-11T16:00:43.185Z,38.62
2023-04-11T16:03:10.608Z,35.58
2023-04-11T16:05:41.953Z,35.09
2023-04-11T16:08:09.106Z,36.81
2023-04-11T16:10:35.983Z,36.28
2023-04-11T16:13:03.249Z,39.66
2023-04-11T16:15:30.572Z,37.34
2023-04-11T16:17:58.434Z,36.84
2023-04-11T16:20:25.701Z,37.65
2023-04-11T16:22:53.663Z,39.51
2023-04-11T16:25:21.551Z,39.50
2023-04-11T16:27:50.065Z,38.82
2023-04-11T16:30:17.225Z,38.51
2023-04-11T16:32:44.837Z,36.43
2023-04-11T16:35:12.287Z,37.96
2023-04-11T16:37:39.350Z,40.04
2023-04-11T16:40:12.089Z,39.09
2023-04-11T16:42:40.030Z,38.13
2023-04-11T16:45:08.826Z,37.78
2023-04-11T16:47:35.822Z,39.56
2023-04-11T16:50:02.756Z,38.92
2023-04-11T16:52:30.191Z,35.86
2023-04-11T16:54:57.347Z,38.90
2023-04-11T16:57:25.860Z,37.21
2023-04-11T16:59:53.190Z,36.98
2023-04-11T17:02:20.498Z,39.61
2023-04-11T17:04:47.308Z,38.44
2023-04-11T17:07:14.316Z,39.95
2023-04-11T17:09:42.962Z,39.11
2023-04-11T17:12:10.238Z,38.41
2023-04-11T17:14:37.109Z,38.80
2023-04-11T17:17:04.325Z,39.30
2023-04-11T17:19:31.662Z,36.87
2023-04-11T17:21:59.234Z,36.85
2023-04-11T17:24:26.244Z,37.41
2023-04-11T17:26:55.560Z,37.62
2023-04-11T17:29:22.499Z,37.24
2023-04-11T17:31:49.446Z,38.08
2023-04-11T17:34:16.293Z,37.34
2023-04-11T17:36:44.362Z,37.13
2023-04-11T17:39:17.953Z,38.47
2023-04-11T17:41:46.074Z,36.63
2023-04-11T17:44:14.500Z,37.65
2023-04-11T17:46:41.542Z,36.00
2023-04-11T17:49:09.616Z,35.83
2023-04-11T17:51:38.920Z,39.01
2023-04-11T17:54:09.789Z,38.06
2023-04-11T17:56:36.592Z,37.16
2023-04-11T17:59:03.433Z,38.45
2023-04-11T18:01:32.535Z,38.30
2023-04-11T18:04:01.664Z,38.62
2023-04-11T18:06:29.870Z,38.63
2023-04-11T18:08:56.828Z,37.65
2023-04-11T18:11:24.138Z,38.88
2023-04-11T18:13:51.631Z,39.33
2023-04-11T18:16:18.633Z,38.37
2023-04-11T18:18:47.053Z,39.19
2023-04-11T18:21:16.512Z,36.78
2023-04-11T18:23:44.983Z,37.81
2023-04-11T18:26:11.827Z,40.74
2023-04-11T18:28:38.606Z,38.80
2023-04-11T18:31:05.722Z,37.97
2023-04-11T18:33:32.929Z,36.50
2023-04-11T18:36:00.453Z,37.01
2023-04-11T18:38:28.749Z,36.42
2023-04-11T18:40:56.951Z,36.53
2023-04-11T18:43:25.266Z,36.80
2023-04-11T18:45:52.124Z,36.81
2023-04-11T18:48:18.995Z,37.39
2023-04-11T18:50:48.685Z,36.76
2023-04-11T18:53:16.278Z,35.63
2023-04-11T18:55:43.833Z,37.64
2023-04-11T18:58:12.497Z,37.35
2023-04-11T19:00:42.137Z,36.18
2023-04-11T19:03:15.810Z,35.77
2023-04-11T19:05:44.407Z,35.75
2023-04-11T19:08:12.302Z,36.33
2023-04-11T19:10:39.278Z,35.89
2023-04-11T19:13:07.533Z,36.31
2023-04-11T19:15:34.484Z,36.81
2023-04-11T19:18:02.051Z,36.26
2023-04-11T19:20:30.531Z,37.85
2023-04-11T19:22:57.532Z,36.43
2023-04-11T19:25:24.543Z,35.90
2023-04-11T19:27:51.640Z,36.86
2023-04-11T19:30:18.589Z,37.45
2023-04-11T19:32:47.740Z,36.05
2023-04-11T19:35:15.710Z,35.58
2023-04-11T19:37:43.140Z,36.48
2023-04-11T19:40:11.620Z,37.28
2023-04-11T19:42:39.976Z,37.96
2023-04-11T19:45:09.252Z,37.75
2023-04-11T19:47:36.333Z,36.92
2023-04-11T19:50:03.432Z,36.35
2023-04-11T19:52:35.179Z,41.67
2023-04-11T19:55:05.229Z,41.56
2023-04-11T19:57:32.527Z,40.40
2023-04-11T20:00:01.073Z,42.88
2023-04-11T20:02:28.070Z,42.54
2023-04-11T20:04:56.281Z,41.00
2023-04-11T20:07:23.518Z,41.27
2023-04-11T20:09:51.447Z,42.64
2023-04-11T20:12:18.333Z,39.81
2023-04-11T20:14:46.222Z,39.64
2023-04-11T20:17:13.040Z,39.37
2023-04-11T20:19:42.284Z,39.11
2023-04-11T20:22:11.425Z,37.39
2023-04-11T20:24:38.269Z,39.65
2023-04-11T20:27:05.730Z,38.32
2023-04-11T20:29:33.106Z,37.26
2023-04-11T20:32:01.787Z,35.97
2023-04-11T20:34:28.757Z,36.01
2023-04-11T20:36:56.297Z,39.71
2023-04-11T20:39:23.327Z,42.82
2023-04-11T20:41:50.140Z,41.39
2023-04-11T20:44:21.299Z,39.26
2023-04-11T20:46:48.222Z,37.13
2023-04-11T20:49:17.757Z,39.13
2023-04-11T20:51:45.120Z,37.44
2023-04-11T20:54:11.969Z,44.86
2023-04-11T20:56:38.766Z,39.76
2023-04-11T20:59:07.276Z,37.90
2023-04-11T21:01:34.115Z,43.61
2023-04-11T21:04:05.017Z,41.19
2023-04-11T21:06:32.190Z,39.84
2023-04-11T21:09:05.969Z,41.90
2023-04-11T21:11:33.301Z,38.07
2023-04-11T21:14:00.159Z,37.83
2023-04-11T21:16:27.145Z,38.37
2023-04-11T21:18:54.095Z,41.84
2023-04-11T21:21:20.933Z,39.54
2023-04-11T21:23:48.287Z,38.61
2023-04-11T21:26:15.334Z,40.39
2023-04-11T21:28:42.201Z,37.59
2023-04-11T21:31:09.080Z,37.72
2023-04-11T21:33:35.862Z,37.31
2023-04-11T21:36:03.062Z,38.59
2023-04-11T21:38:30.336Z,39.33
2023-04-11T21:40:58.115Z,39.36
2023-04-11T21:43:25.025Z,40.23
2023-04-11T21:45:51.811Z,44.22
2023-04-11T21:48:18.760Z,42.90
2023-04-11T21:50:46.552Z,39.25
2023-04-11T21:53:14.204Z,37.31
2023-04-11T21:55:47.385Z,35.88
2023-04-11T21:58:27.942Z,36.27
2023-04-11T22:00:56.368Z,36.50
2023-04-11T22:03:23.782Z,38.58
2023-04-11T22:05:52.582Z,40.67
2023-04-11T22:08:20.377Z,40.50
2023-04-11T22:10:48.288Z,38.16
2023-04-11T22:13:18.513Z,39.24
2023-04-11T22:15:47.298Z,40.64
2023-04-11T22:18:14.618Z,37.54
2023-04-11T22:20:46.466Z,40.08
2023-04-11T22:23:13.898Z,37.11
2023-04-11T22:25:42.464Z,40.10
2023-04-11T22:28:14.074Z,40.42
2023-04-11T22:30:41.380Z,39.04
2023-04-11T22:33:08.953Z,40.92
2023-04-11T22:35:35.841Z,40.03
2023-04-11T22:38:03.692Z,41.17
2023-04-11T22:40:30.937Z,42.15
2023-04-11T22:42:57.756Z,44.20
2023-04-11T22:45:24.641Z,39.25
2023-04-11T22:47:54.448Z,38.73
2023-04-11T22:50:21.856Z,39.68
2023-04-11T22:52:50.155Z,38.63
2023-04-11T22:55:20.051Z,40.53
2023-04-11T22:57:47.645Z,43.79
2023-04-11T23:00:17.897Z,43.82
2023-04-11T23:02:45.167Z,42.08
2023-04-11T23:05:12.161Z,39.83
2023-04-11T23:07:38.903Z,41.68
2023-04-11T23:10:09.163Z,39.42
2023-04-11T23:12:36.461Z,41.95
2023-04-11T23:15:04.249Z,38.65
2023-04-11T23:17:31.403Z,39.56
2023-04-11T23:19:59.622Z,38.78
2023-04-11T23:22:26.743Z,39.85
2023-04-11T23:24:53.902Z,40.27
2023-04-11T23:27:21.177Z,38.48
2023-04-11T23:29:52.720Z,41.44
2023-04-11T23:32:20.349Z,38.22
2023-04-11T23:34:47.848Z,40.54
2023-04-11T23:37:14.771Z,42.35
2023-04-11T23:39:42.144Z,41.99
2023-04-11T23:42:09.045Z,43.33
2023-04-11T23:44:35.920Z,40.65
2023-04-11T23:47:03.195Z,40.19
2023-04-11T23:49:30.140Z,38.86
2023-04-11T23:51:56.891Z,37.79
2023-04-11T23:54:28.894Z,36.84
2023-04-11T23:56:59.738Z,35.25
2023-04-11T23:59:27.149Z,36.35
